Decoded Metar for KANJ (SAULT STE MARIE in MI, USA) (IATA:ANJ) | Meteo·Mobile Aviation Weather
aviador You're here:

KANJ Decoded Metar

SAULT STE MARIE in MI, USA
Report Time2019-10-21 00:08:00
UTC Time2019-10-21 00:48:42
Flight Rules vfr VFR
WindCalm
Visibility9656 m
Phenomena:Mist
Clouds:N/A
Expected CloudBase > 800 ft AGL from Temp-Dew spread
CeilingNone
Temp08°C (ISA -6)
Dew Point06°C (87% RH)
AAT7.1°C
QNH1015 hPa
Density Alt108 ft
Elevation715 ft
Report Wrong Elevation
Raw Report
KANJ 210008Z AUTO 00000KT 6SM BR CLR 08/06 A2998=

Extra information for KANJ:More info

Metar Taf Metar & Taf Last 4 Metars F.Rules Stats Wind Profile Meteogram Temp Stats Airport Information Weather charts Add Link Nearby VenuesMetar ALERT Operation Metar Decoded Social comments

AIRNAV info for KANJ